Time;durP1;ratioP1;P1;durP2;ratioP2;P2;SDS_P1;SDS_P2;PMS_P1;PMS_P2;Temp;Humidity;BMP_temperature;BMP_pressure;BME280_temperature;BME280_humidity;BME280_pressure;Samples;Min_cycle;Max_cycle;Signal;HPM_P1;HPM_P2
2022/08/05 00:00:44;;;;;;;3.37;3.27;;;;;;;17.10;100.00;65990.00;5097240;28;20329;-74
2022/08/05 00:03:15;;;;;;;4.13;4.03;;;;;;;17.04;100.00;65981.22;5096960;28;20178;-74
2022/08/05 00:05:42;;;;;;;6.10;3.30;;;;;;;17.03;100.00;65977.50;5096845;28;20205;-73
2022/08/05 00:08:28;;;;;;;2.87;2.87;;;;;;;17.04;100.00;65986.47;5097711;28;20182;-73
2022/08/05 00:11:04;;;;;;;2.97;2.97;;;;;;;17.04;100.00;65981.22;5097121;28;20338;-73
2022/08/05 00:13:46;;;;;;;2.70;2.70;;;;;;;17.05;100.00;65979.16;5097299;28;20182;-73
2022/08/05 00:16:18;;;;;;;3.20;3.10;;;;;;;17.05;100.00;65984.97;5097022;28;20547;-73
2022/08/05 00:19:03;;;;;;;3.83;3.60;;;;;;;17.08;100.00;65985.16;5096694;28;20550;-73
2022/08/05 00:21:29;;;;;;;2.67;2.67;;;;;;;17.01;100.00;65975.28;5097354;28;20237;-73
2022/08/05 00:24:01;;;;;;;4.10;3.80;;;;;;;16.95;100.00;65968.59;5096859;28;20209;-73
2022/08/05 00:26:37;;;;;;;3.60;3.50;;;;;;;16.96;100.00;65971.75;5096392;28;20205;-73
2022/08/05 00:29:03;;;;;;;3.87;3.77;;;;;;;16.94;100.00;65975.34;5078322;28;20182;-73
2022/08/05 00:31:30;;;;;;;3.70;3.27;;;;;;;16.91;100.00;65966.19;5096707;28;20251;-73
2022/08/05 00:34:16;;;;;;;3.67;3.40;;;;;;;16.85;100.00;65956.88;5096911;28;20166;-73
2022/08/05 00:37:03;;;;;;;4.00;3.00;;;;;;;16.89;100.00;65963.97;5096896;28;20644;-73
2022/08/05 00:39:45;;;;;;;3.33;2.90;;;;;;;16.85;100.00;65959.50;5096743;28;20699;-73
2022/08/05 00:42:36;;;;;;;3.40;3.40;;;;;;;16.83;100.00;65959.88;5096233;28;20176;-73
2022/08/05 00:45:05;;;;;;;2.63;2.63;;;;;;;16.74;100.00;65939.94;5096082;28;20612;-73
2022/08/05 00:47:35;;;;;;;3.33;3.13;;;;;;;16.67;100.00;65943.16;5096376;28;20167;-73
2022/08/05 00:50:21;;;;;;;3.90;3.37;;;;;;;16.65;100.00;65937.75;5096324;28;20277;-73
2022/08/05 00:52:51;;;;;;;3.50;3.50;;;;;;;16.67;100.00;65945.78;5095941;28;20189;-73
2022/08/05 00:55:18;;;;;;;3.43;3.23;;;;;;;16.62;100.00;65940.19;5095843;28;20259;-73
2022/08/05 00:57:45;;;;;;;3.90;3.70;;;;;;;16.62;100.00;65932.34;5095513;28;20692;-73
2022/08/05 01:00:28;;;;;;;4.17;4.07;;;;;;;16.55;100.00;65927.16;5096072;28;20194;-73
2022/08/05 01:02:55;;;;;;;4.30;4.10;;;;;;;16.43;100.00;65916.41;5095784;28;20219;-73
2022/08/05 01:05:22;;;;;;;3.80;3.50;;;;;;;16.34;100.00;65909.56;5095946;28;20245;-73
2022/08/05 01:07:52;;;;;;;4.17;4.00;;;;;;;16.36;100.00;65908.59;5096536;28;20574;-74
2022/08/05 01:11:08;;;;;;;4.20;4.10;;;;;;;16.39;100.00;65909.34;5095947;28;20171;-74
2022/08/05 01:13:46;;;;;;;3.83;3.83;;;;;;;16.33;100.00;65905.81;5095476;28;20225;-74
2022/08/05 01:17:00;;;;;;;4.20;4.10;;;;;;;16.34;100.00;65901.13;5096263;28;20626;-74
2022/08/05 01:19:49;;;;;;;4.30;3.90;;;;;;;16.34;100.00;65903.75;5087637;28;20202;-74
2022/08/05 01:22:45;;;;;;;4.67;4.50;;;;;;;16.32;100.00;65901.53;5096037;28;20177;-74
2022/08/05 01:25:39;;;;;;;4.13;3.83;;;;;;;16.29;100.00;65898.19;5095685;28;20326;-75
2022/08/05 01:28:25;;;;;;;3.70;3.40;;;;;;;16.28;100.00;65900.25;5095285;28;20216;-74
2022/08/05 01:30:55;;;;;;;4.30;3.93;;;;;;;16.23;100.00;65897.88;5095650;28;20621;-74
2022/08/05 01:33:28;;;;;;;4.10;3.90;;;;;;;16.29;100.00;65900.81;5095801;28;20209;-74
2022/08/05 01:36:09;;;;;;;4.00;3.90;;;;;;;16.24;100.00;65890.56;5095536;28;20216;-74
2022/08/05 01:38:39;;;;;;;4.27;4.27;;;;;;;16.24;100.00;65893.75;5095403;28;20174;-74
2022/08/05 01:41:06;;;;;;;5.03;4.83;;;;;;;16.26;100.00;65894.84;5076857;28;20217;-74
2022/08/05 01:43:34;;;;;;;4.33;4.27;;;;;;;16.26;100.00;65895.41;5095775;28;20194;-74
2022/08/05 01:46:01;;;;;;;4.60;4.27;;;;;;;;;;5094949;28;20228;-74
2022/08/05 01:48:43;;;;;;;4.17;4.00;;;;;;;16.20;100.00;65888.72;5095209;28;20174;-74
2022/08/05 01:51:17;;;;;;;5.00;4.70;;;;;;;16.09;100.00;65876.47;5094845;28;20638;-74
2022/08/05 01:53:46;;;;;;;4.77;4.30;;;;;;;16.06;100.00;65873.13;5094809;28;20186;-74
2022/08/05 01:56:28;;;;;;;4.37;4.27;;;;;;;16.09;100.00;65877.03;5095704;28;20583;-74
2022/08/05 01:59:19;;;;;;;4.83;4.60;;;;;;;16.11;100.00;65878.69;5080025;28;20566;-74
2022/08/05 02:01:48;;;;;;;4.20;4.07;;;;;;;16.14;100.00;65882.59;5095398;28;20226;-74
2022/08/05 02:04:19;;;;;;;4.60;4.50;;;;;;;16.08;100.00;65875.91;5095127;28;20190;-74
2022/08/05 02:06:46;;;;;;;5.20;5.07;;;;;;;16.03;100.00;65870.34;5095125;28;20209;-73
2022/08/05 02:09:13;;;;;;;3.87;3.77;;;;;;;;;;5093755;28;20652;-74
2022/08/05 02:11:50;;;;;;;5.33;5.10;;;;;;;16.00;100.00;65864.38;5094477;28;20178;-73
2022/08/05 02:14:26;;;;;;;5.03;4.87;;;;;;;16.00;100.00;65864.38;5094465;28;20223;-74
2022/08/05 02:16:56;;;;;;;4.63;4.63;;;;;;;15.95;100.00;65861.44;5094707;28;20694;-74
2022/08/05 02:19:26;;;;;;;4.87;4.77;;;;;;;15.99;100.00;65870.56;5094597;28;20532;-74
2022/08/05 02:22:16;;;;;;;5.10;5.00;;;;;;;15.96;100.00;65862.53;5094483;28;20210;-74
2022/08/05 02:25:00;;;;;;;5.23;5.13;;;;;;;15.81;100.00;65851.63;5094473;28;20217;-73
2022/08/05 02:27:29;;;;;;;6.03;5.30;;;;;;;15.84;100.00;65854.97;5094564;28;20242;-74
2022/08/05 02:30:16;;;;;;;4.97;4.83;;;;;;;15.80;100.00;65845.28;5094427;28;20184;-74
2022/08/05 02:32:46;;;;;;;5.37;5.10;;;;;;;15.73;100.00;65834.88;5094105;28;20209;-74
2022/08/05 02:35:18;;;;;;;4.90;4.60;;;;;;;15.71;100.00;65837.88;5094270;28;20210;-74
2022/08/05 02:37:56;;;;;;;8.33;5.07;;;;;;;15.71;100.00;65835.25;5094264;28;20248;-74
2022/08/05 02:40:25;;;;;;;5.33;5.33;;;;;;;15.69;100.00;65836.22;5093888;28;20288;-74
2022/08/05 02:42:54;;;;;;;5.33;5.03;;;;;;;15.72;100.00;65835.81;5093892;28;20196;-74
2022/08/05 02:45:21;;;;;;;5.53;5.13;;;;;;;;;;5093693;28;20222;-73
2022/08/05 02:47:53;;;;;;;4.67;4.57;;;;;;;15.68;100.00;65832.47;5093832;28;20238;-74
2022/08/05 02:50:45;;;;;;;10.23;5.33;;;;;;;15.76;100.00;65840.81;5094349;28;20178;-74
2022/08/05 02:53:14;;;;;;;5.23;4.97;;;;;;;15.74;100.00;65838.59;5093767;28;20174;-74
2022/08/05 02:55:48;;;;;;;5.67;5.47;;;;;;;15.75;100.00;65836.53;5093779;28;20222;-74
2022/08/05 02:58:22;;;;;;;6.13;5.87;;;;;;;15.71;100.00;65835.25;5093737;28;20282;-74
2022/08/05 03:00:54;;;;;;;6.20;4.97;;;;;;;;;;5094174;28;20284;-74
2022/08/05 03:03:21;;;;;;;4.93;4.83;;;;;;;15.65;100.00;65831.75;5093902;28;20224;-74
2022/08/05 03:05:50;;;;;;;6.77;5.77;;;;;;;15.65;100.00;65828.59;5093627;28;20202;-73
2022/08/05 03:08:37;;;;;;;6.07;5.77;;;;;;;;;;5078873;28;20170;-73
2022/08/05 03:11:17;;;;;;;5.67;5.57;;;;;;;;;;5093793;28;20174;-73
2022/08/05 03:14:04;;;;;;;5.87;5.53;;;;;;;15.51;100.00;65815.59;5093465;28;20192;-73
2022/08/05 03:16:33;;;;;;;6.60;6.20;;;;;;;15.45;100.00;65804.25;5093359;28;20209;-73
2022/08/05 03:19:01;;;;;;;5.87;5.00;;;;;;;;;;5093390;28;20186;-73
2022/08/05 03:21:38;;;;;;;5.87;5.77;;;;;;;15.49;100.00;65808.13;5093246;28;20193;-72
2022/08/05 03:24:08;;;;;;;5.37;5.13;;;;;;;15.46;100.00;65810.03;5093308;28;20660;-73
2022/08/05 03:26:38;;;;;;;6.40;6.20;;;;;;;15.36;100.00;65800.00;5093465;28;20284;-73
2022/08/05 03:29:05;;;;;;;7.87;6.90;;;;;;;15.28;100.00;65787.91;5093335;28;20595;-73
2022/08/05 03:31:38;;;;;;;6.93;6.57;;;;;;;15.24;100.00;65780.88;5093334;28;20688;-73
2022/08/05 03:34:23;;;;;;;7.33;7.13;;;;;;;15.12;100.00;65768.63;5093521;28;20220;-73
2022/08/05 03:36:49;;;;;;;10.03;6.20;;;;;;;15.16;100.00;65777.19;5094062;28;20581;-73
2022/08/05 03:39:17;;;;;;;6.33;6.13;;;;;;;15.10;100.00;65765.84;5093218;28;20189;-73
2022/08/05 03:41:52;;;;;;;13.17;7.47;;;;;;;15.05;100.00;65763.44;5093668;28;20728;-73
2022/08/05 03:44:21;;;;;;;8.60;8.20;;;;;;;15.01;100.00;65759.00;5093316;28;20192;-73
2022/08/05 03:46:48;;;;;;;7.27;7.00;;;;;;;;;;5093143;28;20687;-73
2022/08/05 03:49:14;;;;;;;7.83;7.43;;;;;;;15.00;100.00;65759.94;5093089;28;20706;-73
2022/08/05 03:52:02;;;;;;;8.13;7.13;;;;;;;15.03;100.00;65763.28;5093112;28;20186;-73
2022/08/05 03:54:52;;;;;;;7.70;7.40;;;;;;;15.11;100.00;65770.13;5093020;28;20210;-74
2022/08/05 03:57:40;;;;;;;7.97;7.37;;;;;;;15.09;100.00;65767.91;5093065;28;20188;-74
2022/08/05 04:00:12;;;;;;;7.53;7.10;;;;;;;;;;5093071;28;20178;-74
2022/08/05 04:02:45;;;;;;;9.27;8.73;;;;;;;15.11;100.00;65770.13;5093282;28;20198;-74
2022/08/05 04:05:27;;;;;;;8.93;8.23;;;;;;;14.97;100.00;65751.38;5092916;28;20216;-74
2022/08/05 04:08:06;;;;;;;10.90;9.50;;;;;;;14.86;100.00;65742.31;5093307;28;20562;-74
2022/08/05 04:10:52;;;;;;;11.87;10.80;;;;;;;14.86;100.00;65742.88;5092966;28;20257;-74
2022/08/05 04:13:20;;;;;;;12.43;11.00;;;;;;;14.85;100.00;65743.78;5092866;28;20247;-74
2022/08/05 04:15:48;;;;;;;10.37;9.60;;;;;;;14.85;100.00;65738.56;5092812;28;20213;-74
2022/08/05 04:18:29;;;;;;;10.83;9.93;;;;;;;14.85;100.00;65744.34;5093114;28;20174;-74
2022/08/05 04:20:56;;;;;;;12.63;11.30;;;;;;;14.79;100.00;65739.75;5093025;28;20201;-74
2022/08/05 04:23:24;;;;;;;12.10;10.80;;;;;;;;;;5092810;28;20270;-75
2022/08/05 04:26:12;;;;;;;12.80;10.97;;;;;;;14.86;100.00;65742.88;5093175;28;20220;-75
2022/08/05 04:28:39;;;;;;;12.00;11.20;;;;;;;14.91;100.00;65745.25;5092933;28;20198;-75
2022/08/05 04:31:17;;;;;;;13.57;12.10;;;;;;;14.88;100.00;65749.75;5093030;28;20181;-75
2022/08/05 04:33:44;;;;;;;14.67;12.10;;;;;;;14.93;100.00;65755.31;5095054;28;20247;-75
2022/08/05 04:36:30;;;;;;;18.70;11.93;;;;;;;14.95;100.00;65754.38;5096573;28;20205;-75
2022/08/05 04:39:14;;;;;;;17.53;13.30;;;;;;;;;;5096715;28;20612;-75
2022/08/05 04:41:41;;;;;;;12.00;10.93;;;;;;;14.94;100.00;65755.88;5096489;28;20210;-75
2022/08/05 04:44:09;;;;;;;11.33;10.23;;;;;;;14.93;100.00;65752.13;5096448;28;20193;-75
2022/08/05 04:46:37;;;;;;;13.07;11.77;;;;;;;14.98;100.00;65758.25;5097226;28;20225;-75
2022/08/05 04:49:04;;;;;;;16.03;13.03;;;;;;;14.98;100.00;65757.72;5096887;28;20217;-75
2022/08/05 04:51:37;;;;;;;22.73;14.57;;;;;;;14.97;100.00;65754.53;5096301;28;20254;-75
2022/08/05 04:54:04;;;;;;;17.30;14.13;;;;;;;15.04;100.00;65759.16;5096227;28;20687;-75
2022/08/05 04:56:31;;;;;;;15.57;12.83;;;;;;;14.99;100.00;65756.75;5095883;28;20232;-75
2022/08/05 04:59:03;;;;;;;14.60;12.93;;;;;;;14.99;100.00;65753.59;5096499;28;20617;-75
2022/08/05 05:01:49;;;;;;;14.53;11.60;;;;;;;15.05;100.00;65763.44;5096027;28;20681;-75
2022/08/05 05:04:35;;;;;;;15.20;13.20;;;;;;;15.07;100.00;65765.69;5096507;28;20533;-75
2022/08/05 05:07:03;;;;;;;14.80;10.90;;;;;;;15.05;100.00;65763.44;5096206;28;20654;-75
2022/08/05 05:09:34;;;;;;;10.40;9.63;;;;;;;15.08;100.00;65763.63;5095965;28;20206;-76
2022/08/05 05:12:03;;;;;;;13.37;10.83;;;;;;;15.06;100.00;65771.84;5095916;28;20548;-76
2022/08/05 05:14:31;;;;;;;11.43;10.20;;;;;;;15.05;100.00;65760.81;5095559;28;20186;-76
2022/08/05 05:16:59;;;;;;;10.50;9.77;;;;;;;15.05;100.00;65760.81;5095496;28;20683;-76
2022/08/05 05:19:25;;;;;;;11.37;10.53;;;;;;;15.03;100.00;65761.22;5096009;28;20238;-76
2022/08/05 05:22:09;;;;;;;10.73;9.90;;;;;;;14.97;100.00;65754.53;5095418;28;20656;-76
2022/08/05 05:24:52;;;;;;;11.80;10.67;;;;;;;15.02;100.00;65756.94;5095818;28;20238;-75
2022/08/05 05:27:29;;;;;;;11.53;10.53;;;;;;;;;;5095397;28;20225;-75
2022/08/05 05:30:10;;;;;;;12.30;9.53;;;;;;;14.96;100.00;65753.44;5095388;28;20174;-76
2022/08/05 05:32:56;;;;;;;11.93;10.73;;;;;;;14.97;100.00;65754.53;5095518;28;20180;-76
2022/08/05 05:35:32;;;;;;;14.43;9.87;;;;;;;14.92;100.00;65748.97;5095367;28;20288;-76
2022/08/05 05:38:07;;;;;;;10.47;9.67;;;;;;;14.97;100.00;65753.97;5095146;28;20265;-76
2022/08/05 05:40:40;;;;;;;15.63;12.30;;;;;;;14.97;100.00;65759.75;5095679;28;20174;-76
2022/08/05 05:43:16;;;;;;;13.00;11.30;;;;;;;15.00;100.00;65757.88;5095489;28;20166;-76
2022/08/05 05:46:03;;;;;;;16.43;12.27;;;;;;;15.02;100.00;65759.56;5095294;28;20209;-76
2022/08/05 05:48:31;;;;;;;12.67;11.70;;;;;;;15.02;100.00;65752.25;5095157;28;20276;-76
2022/08/05 05:50:59;;;;;;;13.50;11.97;;;;;;;;;;5094868;28;20247;-76
2022/08/05 05:53:41;;;;;;;13.17;11.97;;;;;;;15.01;100.00;65759.00;5094884;28;20624;-76
2022/08/05 05:56:23;;;;;;;21.83;13.17;;;;;;;;;;5094779;28;20714;-76
2022/08/05 05:59:01;;;;;;;12.40;11.20;;;;;;;14.98;100.00;65765.56;5095063;28;20658;-75
2022/08/05 06:01:30;;;;;;;12.93;11.90;;;;;;;14.99;100.00;65756.19;5094838;28;20220;-75
2022/08/05 06:04:09;;;;;;;18.40;12.43;;;;;;;15.01;100.00;65758.44;5094940;28;20582;-76
2022/08/05 06:06:39;;;;;;;21.00;12.97;;;;;;;15.01;100.00;65764.22;5094822;28;20216;-75
2022/08/05 06:09:07;;;;;;;16.30;11.97;;;;;;;15.00;100.00;65750.03;5094540;28;20181;-76
2022/08/05 06:11:44;;;;;;;13.20;12.07;;;;;;;15.03;100.00;65758.06;5095086;28;20616;-76
2022/08/05 06:14:27;;;;;;;12.63;11.57;;;;;;;;;;5094417;28;20174;-75
2022/08/05 06:16:54;;;;;;;16.00;12.40;;;;;;;;;;5094885;28;20196;-76
2022/08/05 06:19:22;;;;;;;16.03;11.43;;;;;;;15.02;100.00;65762.72;5094874;28;20217;-75
2022/08/05 06:22:01;;;;;;;12.57;11.43;;;;;;;15.03;100.00;65758.06;5094304;28;20675;-76
2022/08/05 06:24:27;;;;;;;12.70;11.60;;;;;;;14.99;100.00;65756.75;5094202;28;20198;-75
2022/08/05 06:26:54;;;;;;;12.30;11.13;;;;;;;14.87;100.00;65743.41;5094409;28;20200;-75
2022/08/05 06:29:21;;;;;;;14.93;13.30;;;;;;;14.83;100.00;65738.97;5094695;28;20579;-76
2022/08/05 06:32:09;;;;;;;18.87;13.37;;;;;;;14.84;100.00;65737.47;5094369;28;20624;-75
2022/08/05 06:34:52;;;;;;;18.13;14.70;;;;;;;14.75;100.00;65732.69;5094268;28;20217;-75
2022/08/05 06:37:23;;;;;;;12.60;11.60;;;;;;;14.64;100.00;65718.38;5094342;28;20235;-75
2022/08/05 06:40:10;;;;;;;17.83;12.97;;;;;;;14.65;100.00;65721.56;5094796;28;20176;-75
2022/08/05 06:42:37;;;;;;;13.83;12.60;;;;;;;14.57;100.00;65711.16;5093834;28;20552;-75
2022/08/05 06:45:06;;;;;;;13.23;12.13;;;;;;;14.53;100.00;65706.16;5093794;28;20208;-76
2022/08/05 06:47:35;;;;;;;13.63;12.30;;;;;;;14.50;100.00;65700.75;5093840;28;20618;-76
2022/08/05 06:50:21;;;;;;;11.63;10.50;;;;;;;14.40;100.00;65689.06;5094370;28;20540;-75
2022/08/05 06:52:49;;;;;;;10.87;9.77;;;;;;;14.38;100.00;65687.38;5094266;28;20177;-75
2022/08/05 06:55:29;;;;;;;9.40;8.73;;;;;;;14.35;100.00;65686.09;5093592;28;20220;-75
2022/08/05 06:58:01;;;;;;;9.17;8.13;;;;;;;;;;5093978;28;20174;-75
2022/08/05 07:00:45;;;;;;;12.47;10.27;;;;;;;;;;5093637;28;20181;-75
2022/08/05 07:03:12;;;;;;;10.23;9.30;;;;;;;14.36;100.00;65684.59;5093568;28;20236;-75
2022/08/05 07:05:42;;;;;;;9.77;9.20;;;;;;;14.38;100.00;65703.06;5094029;28;20210;-76
2022/08/05 07:08:08;;;;;;;9.17;8.33;;;;;;;14.39;100.00;65706.78;5094103;28;20208;-75
2022/08/05 07:10:36;;;;;;;8.13;7.57;;;;;;;14.28;100.00;65684.66;5075437;28;20307;-75
2022/08/05 07:19:12;;;;;;;8.63;8.03;;;;;;;;;;5093569;28;20197;-75
2022/08/05 07:21:48;;;;;;;8.27;7.50;;;;;;;14.28;100.00;65679.41;5093632;28;20201;-75
2022/08/05 07:24:26;;;;;;;7.80;7.13;;;;;;;;;;5093852;28;20172;-75
2022/08/05 07:26:55;;;;;;;8.40;7.87;;;;;;;14.28;100.00;65684.66;5093074;28;20205;-75
2022/08/05 07:29:21;;;;;;;8.97;8.47;;;;;;;;;;5093591;28;20182;-75
2022/08/05 07:32:07;;;;;;;7.07;6.70;;;;;;;14.25;100.00;65678.72;5093565;28;20189;-75
2022/08/05 07:34:34;;;;;;;9.17;7.93;;;;;;;14.24;100.00;65671.81;5093438;28;20196;-75
2022/08/05 07:37:07;;;;;;;7.23;6.83;;;;;;;14.22;100.00;65670.16;5093548;28;20182;-75
2022/08/05 07:39:37;;;;;;;8.40;7.90;;;;;;;14.18;100.00;65665.69;5093719;28;20189;-75
2022/08/05 07:42:23;;;;;;;7.60;7.30;;;;;;;14.23;100.00;65673.88;5093567;28;20285;-75
2022/08/05 07:44:59;;;;;;;7.13;6.83;;;;;;;14.19;100.00;65668.88;5093145;28;20330;-75
2022/08/05 07:47:26;;;;;;;9.80;7.33;;;;;;;14.18;100.00;65667.75;5092258;28;20224;-75
2022/08/05 07:50:08;;;;;;;7.70;7.17;;;;;;;14.17;100.00;65664.03;5126042;28;20192;-76
2022/08/05 07:52:39;;;;;;;8.10;7.33;;;;;;;14.18;100.00;65667.75;5124309;28;20219;-75
2022/08/05 07:55:06;;;;;;;8.83;8.00;;;;;;;14.12;100.00;65661.09;5128841;28;20708;-75
2022/08/05 07:57:53;;;;;;;8.33;7.70;;;;;;;14.08;100.00;65659.25;5112166;28;20192;-75
2022/08/05 08:00:28;;;;;;;8.53;7.80;;;;;;;14.13;100.00;65654.34;5113617;28;20263;-76
2022/08/05 08:02:54;;;;;;;9.13;8.27;;;;;;;14.01;100.00;65655.19;5113762;28;20197;-76
2022/08/05 08:05:42;;;;;;;7.83;7.33;;;;;;;14.05;100.00;65651.78;5109360;28;20208;-76
2022/08/05 08:08:15;;;;;;;8.63;8.13;;;;;;;14.02;100.00;65651.09;5114946;28;20193;-76
2022/08/05 08:10:45;;;;;;;8.53;8.03;;;;;;;13.97;100.00;65645.50;5116756;28;20197;-75
2022/08/05 08:13:14;;;;;;;7.20;6.50;;;;;;;13.98;100.00;65644.00;5115036;27;20564;-75
2022/08/05 08:15:47;;;;;;;5.87;5.57;;;;;;;13.95;100.00;65653.75;5116708;27;20216;-75
2022/08/05 08:18:34;;;;;;;9.93;7.00;;;;;;;13.94;100.00;65639.59;5125073;27;20190;-74
2022/08/05 08:21:04;;;;;;;7.30;6.70;;;;;;;14.00;100.00;65646.25;5127953;27;20223;-75
2022/08/05 08:23:41;;;;;;;7.13;6.73;;;;;;;14.07;100.00;65660.75;5122838;27;20283;-75
2022/08/05 08:26:27;;;;;;;6.83;6.63;;;;;;;;;;5120731;27;20200;-74
2022/08/05 08:28:56;;;;;;;6.30;5.90;;;;;;;14.02;100.00;65651.09;5137494;27;20184;-74
2022/08/05 08:31:42;;;;;;;6.70;6.30;;;;;;;;;;5124393;27;20193;-74
2022/08/05 08:34:08;;;;;;;5.87;5.73;;;;;;;;;;5119775;27;20235;-74
2022/08/05 08:36:35;;;;;;;6.10;5.70;;;;;;;13.96;100.00;65647.03;5133685;27;20254;-74
2022/08/05 08:39:18;;;;;;;6.60;6.43;;;;;;;13.95;100.00;65645.34;5136728;27;20221;-74
2022/08/05 08:41:47;;;;;;;6.33;5.73;;;;;;;13.95;100.00;65645.34;5131643;27;20238;-74
2022/08/05 08:44:29;;;;;;;5.60;5.50;;;;;;;13.96;100.00;65652.25;5116527;28;20188;-74
2022/08/05 08:47:21;;;;;;;5.53;5.33;;;;;;;14.01;100.00;65652.03;5132741;27;20249;-74
2022/08/05 08:50:10;;;;;;;6.07;5.97;;;;;;;13.99;100.00;65645.13;5128133;27;20186;-74
2022/08/05 08:53:04;;;;;;;6.30;6.20;;;;;;;13.99;100.00;65647.72;5121365;27;20189;-74
2022/08/05 08:55:38;;;;;;;6.27;6.10;;;;;;;14.01;100.00;65649.41;5136891;27;20212;-75
2022/08/05 08:58:25;;;;;;;5.93;5.77;;;;;;;14.05;100.00;65659.63;5136892;27;20517;-76
2022/08/05 09:01:12;;;;;;;6.33;6.00;;;;;;;14.02;100.00;65651.09;5136780;27;20183;-76
2022/08/05 09:03:45;;;;;;;6.73;5.43;;;;;;;14.03;100.00;65657.41;5133089;27;20201;-75
2022/08/05 09:06:13;;;;;;;6.70;6.47;;;;;;;14.02;100.00;65653.13;5134816;27;20212;-76
2022/08/05 09:08:45;;;;;;;5.40;5.10;;;;;;;14.04;100.00;65653.31;5126507;27;20655;-75
2022/08/05 09:11:13;;;;;;;5.93;5.73;;;;;;;14.07;100.00;65658.13;5136964;27;20188;-76
2022/08/05 09:13:41;;;;;;;5.27;5.07;;;;;;;14.11;100.00;65660.53;5135446;27;20207;-75
2022/08/05 09:16:28;;;;;;;5.13;5.03;;;;;;;14.15;100.00;65661.81;5133537;27;20213;-75
2022/08/05 09:18:54;;;;;;;5.40;5.30;;;;;;;14.18;100.00;65665.16;5112975;27;20201;-75
2022/08/05 09:21:27;;;;;;;5.03;4.67;;;;;;;;;;5115577;28;20216;-75
2022/08/05 09:24:13;;;;;;;5.67;5.03;;;;;;;14.23;100.00;65673.31;5113374;27;20177;-75
2022/08/05 09:26:44;;;;;;;4.80;4.40;;;;;;;14.24;100.00;65674.97;5122740;27;20265;-75
2022/08/05 09:29:13;;;;;;;5.90;5.50;;;;;;;14.23;100.00;65673.31;5126465;27;20468;-75
2022/08/05 09:32:00;;;;;;;5.47;5.30;;;;;;;14.25;100.00;65667.72;5134091;27;20617;-76
2022/08/05 09:34:48;;;;;;;5.57;5.10;;;;;;;;;;5136582;27;20686;-76
2022/08/05 09:37:23;;;;;;;9.27;5.70;;;;;;;14.33;100.00;65684.44;5134180;27;20191;-76
2022/08/05 09:40:28;;;;;;;5.57;5.27;;;;;;;14.38;100.00;65687.38;5136399;27;20598;-76
2022/08/05 09:42:54;;;;;;;5.90;5.70;;;;;;;14.37;100.00;65693.56;5135049;27;20237;-76
2022/08/05 09:45:33;;;;;;;6.00;5.67;;;;;;;14.37;100.00;65690.94;5130676;27;20201;-75
2022/08/05 09:48:30;;;;;;;5.77;5.47;;;;;;;14.39;100.00;65690.56;5117536;27;20222;-76
2022/08/05 09:50:58;;;;;;;5.97;5.53;;;;;;;;;;5131395;27;20592;-76
2022/08/05 09:53:26;;;;;;;4.73;4.70;;;;;;;14.32;100.00;65683.88;5129693;27;20182;-76
2022/08/05 09:56:13;;;;;;;6.23;5.87;;;;;;;14.38;100.00;65694.66;5091995;28;20252;-76
2022/08/05 09:58:41;;;;;;;4.83;4.53;;;;;;;14.37;100.00;65688.88;5113242;27;20677;-76
2022/08/05 10:01:11;;;;;;;5.40;5.10;;;;;;;14.42;100.00;65694.44;5126580;27;20184;-76
2022/08/05 10:03:54;;;;;;;5.13;5.03;;;;;;;14.42;100.00;65691.81;5126300;27;20288;-76
2022/08/05 10:06:26;;;;;;;6.07;5.67;;;;;;;14.49;100.00;65699.63;5119889;27;20208;-76
2022/08/05 10:08:53;;;;;;;5.80;5.60;;;;;;;14.50;100.00;65706.00;5114991;28;20577;-76
2022/08/05 10:11:21;;;;;;;6.10;5.67;;;;;;;14.48;100.00;65701.13;5112622;27;20198;-77
2022/08/05 10:13:48;;;;;;;4.87;4.50;;;;;;;14.54;100.00;65713.03;5134567;27;20267;-77
2022/08/05 10:16:35;;;;;;;5.73;5.33;;;;;;;14.58;100.00;65709.09;5135407;27;20203;-76
2022/08/05 10:19:18;;;;;;;4.90;4.80;;;;;;;;;;5135605;27;20252;-76
2022/08/05 10:21:57;;;;;;;4.90;4.60;;;;;;;14.62;100.00;65720.81;5133663;27;20184;-76
2022/08/05 10:24:25;;;;;;;5.47;5.03;;;;;;;14.73;100.00;65727.84;5135383;27;20173;-76
2022/08/05 10:26:55;;;;;;;5.97;5.53;;;;;;;;;;5135390;27;20197;-76
2022/08/05 10:29:28;;;;;;;5.50;5.40;;;;;;;14.89;100.00;65750.88;5124869;27;20247;-76
2022/08/05 10:32:15;;;;;;;4.17;4.07;;;;;;;;;;5094108;28;20232;-76
2022/08/05 10:35:01;;;;;;;4.30;4.10;;;;;;;14.99;100.00;65754.16;5110206;27;20780;-75
2022/08/05 10:37:29;;;;;;;3.40;3.20;;;;;;;;;;5122183;27;20195;-74
2022/08/05 10:40:17;;;;;;;3.77;3.67;;;;;;;;;;5114473;27;20184;-74
2022/08/05 10:42:49;;;;;;;3.23;3.23;;;;;;;15.13;100.00;65769.72;5121634;27;20238;-75
2022/08/05 10:45:24;;;;;;;3.17;3.07;;;;;;;15.19;100.00;65777.91;5119141;27;20220;-75
2022/08/05 10:48:37;;;;;;;3.00;3.00;;;;;;;15.24;100.00;65786.66;5112594;28;20224;-75
2022/08/05 10:51:24;;;;;;;4.27;3.13;;;;;;;15.27;100.00;65789.44;5094186;28;20174;-75
2022/08/05 10:53:59;;;;;;;4.43;4.03;;;;;;;15.47;100.00;65806.47;5114905;27;20182;-75
2022/08/05 10:56:44;;;;;;;4.10;4.07;;;;;;;15.49;100.00;65808.69;5121207;27;20327;-74
2022/08/05 10:59:15;;;;;;;2.80;2.80;;;;;;;15.53;100.00;65813.16;5135005;27;20568;-74
2022/08/05 11:02:10;;;;;;;3.13;2.90;;;;;;;15.68;100.00;65829.84;5135183;27;20257;-74
2022/08/05 11:04:56;;;;;;;5.03;3.03;;;;;;;15.81;100.00;65845.84;5123273;27;20259;-74
2022/08/05 11:07:23;;;;;;;2.40;2.40;;;;;;;15.95;100.00;65858.81;5130818;27;20233;-76
2022/08/05 11:10:21;;;;;;;2.33;2.33;;;;;;;15.98;100.00;65856.91;5135070;27;20187;-75
2022/08/05 11:12:53;;;;;;;3.53;3.53;;;;;;;;;;5129622;27;20186;-75
2022/08/05 11:15:27;;;;;;;3.93;3.83;;;;;;;16.18;100.00;65884.44;5134294;27;20208;-75
2022/08/05 11:18:25;;;;;;;3.10;3.10;;;;;;;;;;5117283;27;20208;-74
2022/08/05 11:20:52;;;;;;;3.77;3.73;;;;;;;;;;5133329;27;20181;-75
2022/08/05 11:23:40;;;;;;;3.80;3.70;;;;;;;16.29;100.00;65900.81;5134123;27;20273;-75
2022/08/05 11:26:27;;;;;;;3.50;3.37;;;;;;;16.39;100.00;65909.34;5118935;27;20217;-74
2022/08/05 11:29:04;;;;;;;5.13;4.00;;;;;;;16.44;100.00;65915.47;5095466;28;20552;-74
2022/08/05 11:31:43;;;;;;;5.03;4.90;;;;;;;16.49;100.00;65923.66;5115845;28;20271;-74
2022/08/05 11:34:40;;;;;;;3.87;3.87;;;;;;;16.53;100.00;65917.06;5110775;28;20184;-75
2022/08/05 11:37:41;;;;;;;5.67;5.30;;;;;;;16.50;100.00;65919.53;5122414;28;20193;-74
2022/08/05 11:40:47;;;;;;;4.87;4.87;;;;;;;;;;5111436;28;20312;-74
2022/08/05 11:43:20;;;;;;;4.47;4.37;;;;;;;16.51;100.00;65920.09;5125849;27;20681;-74
2022/08/05 11:46:07;;;;;;;5.27;5.17;;;;;;;16.60;100.00;65932.72;5106680;28;20610;-75
2022/08/05 11:48:54;;;;;;;5.67;5.53;;;;;;;16.75;100.00;65941.03;5117583;28;20205;-75
2022/08/05 11:51:22;;;;;;;4.67;4.47;;;;;;;16.78;100.00;65944.94;5117578;28;20234;-75
2022/08/05 11:54:14;;;;;;;6.83;6.07;;;;;;;16.92;100.00;65964.66;5117494;28;20208;-75
2022/08/05 11:56:42;;;;;;;4.77;4.67;;;;;;;;;;5117931;28;20751;-75
2022/08/05 11:59:21;;;;;;;4.70;4.50;;;;;;;16.99;100.00;65975.09;5117381;28;20200;-75
2022/08/05 12:01:51;;;;;;;6.53;6.33;;;;;;;;;;5117299;28;20231;-75
2022/08/05 12:04:18;;;;;;;5.80;5.50;;;;;;;17.19;100.00;65996.84;5117858;28;20189;-75
2022/08/05 12:06:48;;;;;;;7.17;6.97;;;;;;;17.33;100.00;66001.97;5117273;28;20211;-75
2022/08/05 12:09:19;;;;;;;7.70;7.40;;;;;;;;;;5116889;28;20215;-75
2022/08/05 12:12:05;;;;;;;5.77;5.57;;;;;;;17.59;100.00;66040.91;5117394;28;20520;-75
2022/08/05 12:14:41;;;;;;;6.87;6.67;;;;;;;17.48;100.00;66026.00;5099515;28;20169;-74
2022/08/05 12:17:13;;;;;;;5.33;5.17;;;;;;;;;;5121581;27;20184;-75
2022/08/05 12:20:00;;;;;;;5.43;5.33;;;;;;;17.44;100.00;66022.09;5130086;27;20272;-75
2022/08/05 12:22:46;;;;;;;5.23;5.13;;;;;;;;;;5132224;27;20292;-75
2022/08/05 12:25:17;;;;;;;5.33;4.97;;;;;;;17.33;100.00;66010.38;5132258;27;20216;-75
2022/08/05 12:27:46;;;;;;;5.00;4.90;;;;;;;17.26;100.00;66004.66;5132710;27;20205;-74
2022/08/05 12:30:21;;;;;;;5.90;5.60;;;;;;;17.27;100.00;66003.69;5133841;27;20181;-74
2022/08/05 12:32:57;;;;;;;4.73;4.63;;;;;;;17.26;100.00;66002.56;5129049;27;20176;-75